createdAt,value
2022-12-18T00:00:42.158Z,101361.19
2022-12-18T00:03:31.364Z,101347.69
2022-12-18T00:06:20.758Z,101374.09
2022-12-18T00:09:09.527Z,101363.78
2022-12-18T00:11:58.039Z,101365.53
2022-12-18T00:14:47.920Z,101376.91
2022-12-18T00:17:36.381Z,101379.81
2022-12-18T00:20:26.585Z,101361.59
2022-12-18T00:23:15.035Z,101354.72
2022-12-18T00:26:03.904Z,101353.94
2022-12-18T00:28:52.812Z,101364.31
2022-12-18T00:31:43.944Z,101373.03
2022-12-18T00:34:32.534Z,101371.31
2022-12-18T00:37:20.966Z,101371.66
2022-12-18T00:40:10.992Z,101382.69
2022-12-18T00:42:58.565Z,101389.47
2022-12-18T00:45:47.680Z,101382.75
2022-12-18T00:48:37.552Z,101386.44
2022-12-18T00:51:26.418Z,101376.16
2022-12-18T00:54:14.978Z,101379.47
2022-12-18T00:57:03.739Z,101375.06
2022-12-18T00:59:52.218Z,101380.84
2022-12-18T01:02:41.220Z,101382.59
2022-12-18T01:05:31.147Z,101359.38
2022-12-18T01:08:19.642Z,101361.13
2022-12-18T01:11:10.339Z,101205.81
2022-12-18T01:13:58.815Z,101347.34
2022-12-18T01:16:47.364Z,101366.03
2022-12-18T01:19:36.048Z,101359.38
2022-12-18T01:22:25.954Z,101361.97
2022-12-18T01:25:14.423Z,101373.91
2022-12-18T01:28:02.896Z,101378.41
2022-12-18T01:30:51.361Z,101372.13
2022-12-18T01:33:40.048Z,101355.75
2022-12-18T01:36:30.479Z,101343.88
2022-12-18T01:39:20.874Z,101365.13
2022-12-18T01:42:13.379Z,101374.50
2022-12-18T01:45:07.969Z,101332.66
2022-12-18T01:47:57.736Z,101354.00
2022-12-18T01:50:46.178Z,101377.03
2022-12-18T01:53:34.911Z,101375.44
2022-12-18T01:56:24.981Z,101394.47
2022-12-18T01:59:13.840Z,101397.13
2022-12-18T02:02:02.868Z,101382.34
2022-12-18T02:04:51.924Z,101362.78
2022-12-18T02:07:46.942Z,101374.03
2022-12-18T02:10:41.359Z,101373.16
2022-12-18T02:13:37.347Z,101371.19
2022-12-18T02:16:29.831Z,101381.31
2022-12-18T02:19:30.858Z,101381.97
2022-12-18T02:22:28.926Z,101382.13
2022-12-18T02:25:31.076Z,101381.28
2022-12-18T02:28:22.663Z,101383.13
2022-12-18T02:31:15.781Z,101372.06
2022-12-18T02:34:05.918Z,101358.09
2022-12-18T02:36:56.595Z,101392.09
2022-12-18T02:39:46.790Z,101391.00
2022-12-18T02:42:35.288Z,101381.00
2022-12-18T02:45:25.077Z,101380.75
2022-12-18T02:48:13.631Z,101381.84
2022-12-18T02:51:06.574Z,101394.56
2022-12-18T02:54:00.831Z,101397.00
2022-12-18T02:56:53.266Z,101362.50
2022-12-18T02:59:44.277Z,101400.47
2022-12-18T03:02:39.350Z,101394.81
2022-12-18T03:05:33.638Z,101374.47
2022-12-18T03:08:24.174Z,101394.38
2022-12-18T03:11:14.942Z,101370.69
2022-12-18T03:14:03.920Z,101405.97
2022-12-18T03:16:55.461Z,101409.78
2022-12-18T03:19:46.189Z,101385.59
2022-12-18T03:22:35.541Z,101358.75
2022-12-18T03:25:24.636Z,101387.16
2022-12-18T03:28:16.510Z,101320.03
2022-12-18T03:31:07.168Z,101389.94
2022-12-18T03:33:57.308Z,101395.19
2022-12-18T03:36:47.338Z,101378.91
2022-12-18T03:39:36.357Z,101370.34
2022-12-18T03:42:29.665Z,101359.19
2022-12-18T03:45:23.326Z,101381.31
2022-12-18T03:48:16.220Z,101378.66
2022-12-18T03:51:08.398Z,101377.94
2022-12-18T03:54:00.983Z,101391.75
2022-12-18T03:56:55.433Z,101381.41
2022-12-18T03:59:45.804Z,101376.84
2022-12-18T04:02:34.938Z,101373.56
2022-12-18T04:05:24.980Z,101375.38
2022-12-18T04:08:14.258Z,101383.41
2022-12-18T04:11:04.325Z,101362.69
2022-12-18T04:13:57.564Z,101367.91
2022-12-18T04:16:46.149Z,101366.00
2022-12-18T04:19:34.728Z,101366.97
2022-12-18T04:22:23.192Z,101309.44
2022-12-18T04:25:14.367Z,101357.44
2022-12-18T04:28:04.450Z,101335.47
2022-12-18T04:30:53.187Z,101365.06
2022-12-18T04:33:42.060Z,101376.09
2022-12-18T04:36:30.900Z,101360.38
2022-12-18T04:39:19.325Z,101367.16
2022-12-18T04:42:07.770Z,101383.53
2022-12-18T04:44:57.592Z,101383.06
2022-12-18T04:47:46.014Z,101377.22
2022-12-18T04:50:34.422Z,101378.94
2022-12-18T04:53:22.894Z,101378.25
2022-12-18T04:56:12.846Z,101392.22
2022-12-18T04:59:01.340Z,101390.63
2022-12-18T05:01:51.200Z,101383.06
2022-12-18T05:04:39.737Z,101383.88
2022-12-18T05:07:28.140Z,101373.03
2022-12-18T05:10:16.650Z,101395.03
2022-12-18T05:13:05.059Z,101398.53
2022-12-18T05:15:53.976Z,101392.28
2022-12-18T05:18:43.957Z,101406.94
2022-12-18T05:21:32.393Z,101401.84
2022-12-18T05:24:20.773Z,101373.91
2022-12-18T05:27:09.364Z,101416.38
2022-12-18T05:29:57.803Z,101417.28
2022-12-18T05:32:46.272Z,101415.75
2022-12-18T05:35:36.111Z,101405.56
2022-12-18T05:38:25.671Z,101410.75
2022-12-18T05:41:14.212Z,101420.31
2022-12-18T05:44:02.700Z,101413.38
2022-12-18T05:46:51.195Z,101409.91
2022-12-18T05:49:39.668Z,101400.47
2022-12-18T05:52:29.421Z,101403.63
2022-12-18T05:55:17.922Z,101397.59
2022-12-18T05:58:07.097Z,101402.75
2022-12-18T06:00:55.601Z,101405.41
2022-12-18T06:03:44.270Z,101403.00
2022-12-18T06:06:33.196Z,101414.09
2022-12-18T06:09:23.052Z,101418.09
2022-12-18T06:12:11.816Z,101417.19
2022-12-18T06:15:00.289Z,101432.63
2022-12-18T06:17:48.745Z,101436.25
2022-12-18T06:20:40.587Z,101448.09
2022-12-18T06:23:29.265Z,101447.34
2022-12-18T06:26:23.303Z,101439.41
2022-12-18T06:29:14.644Z,101442.88
2022-12-18T06:32:03.258Z,101451.38
2022-12-18T06:34:51.731Z,101449.06
2022-12-18T06:37:40.151Z,101471.28
2022-12-18T06:40:28.618Z,101465.09
2022-12-18T06:43:22.626Z,101472.00
2022-12-18T06:46:11.798Z,101468.41
2022-12-18T06:49:00.310Z,101467.44
2022-12-18T06:51:49.200Z,101486.44
2022-12-18T06:54:37.652Z,101501.16
2022-12-18T06:57:26.110Z,101469.19
2022-12-18T07:00:19.536Z,101478.34
2022-12-18T07:03:08.086Z,101482.56
2022-12-18T07:05:56.622Z,101472.31
2022-12-18T07:08:45.323Z,101485.00
2022-12-18T07:11:34.798Z,101482.84
2022-12-18T07:14:23.182Z,101492.81
2022-12-18T07:17:13.008Z,101366.22
2022-12-18T07:20:01.792Z,101485.94
2022-12-18T07:22:54.771Z,101493.22
2022-12-18T07:25:44.692Z,101497.94
2022-12-18T07:28:33.496Z,101497.94
2022-12-18T07:31:23.148Z,101495.91
2022-12-18T07:34:13.708Z,101445.06
2022-12-18T07:37:02.304Z,101512.69
2022-12-18T07:39:50.701Z,101509.66
2022-12-18T07:42:40.153Z,101514.56
2022-12-18T07:45:28.667Z,101516.53
2022-12-18T07:48:17.213Z,101501.06
2022-12-18T07:51:08.494Z,101517.09
2022-12-18T07:53:56.963Z,101527.09
2022-12-18T07:56:45.734Z,101522.72
2022-12-18T07:59:34.208Z,101525.44
2022-12-18T08:02:22.790Z,101530.59
2022-12-18T08:05:11.376Z,101538.19
2022-12-18T08:08:01.342Z,101548.63
2022-12-18T08:10:49.785Z,101538.69
2022-12-18T08:13:38.470Z,101547.81
2022-12-18T08:16:27.463Z,101544.81
2022-12-18T08:19:15.951Z,101544.56
2022-12-18T08:22:04.682Z,101501.78
2022-12-18T08:24:54.550Z,101527.41
2022-12-18T08:27:43.021Z,101529.91
2022-12-18T08:30:31.462Z,101530.81
2022-12-18T08:33:20.135Z,101543.34
2022-12-18T08:36:12.058Z,101537.06
2022-12-18T08:39:00.490Z,101522.84
2022-12-18T08:42:09.765Z,101520.19
2022-12-18T08:44:58.671Z,101508.50
2022-12-18T08:47:47.209Z,101517.00
2022-12-18T08:50:35.993Z,101502.28
2022-12-18T08:53:31.445Z,101495.81
2022-12-18T08:56:22.633Z,101497.84
2022-12-18T08:59:19.519Z,101486.84
2022-12-18T09:02:12.976Z,101494.00
2022-12-18T09:05:02.603Z,101487.59
2022-12-18T09:07:51.944Z,101485.03
2022-12-18T09:10:44.846Z,101464.47
2022-12-18T09:13:34.582Z,101482.72
2022-12-18T09:16:32.345Z,101485.28
2022-12-18T09:19:26.037Z,101479.91
2022-12-18T09:22:17.128Z,101483.41
2022-12-18T09:25:08.953Z,101492.97
2022-12-18T09:27:57.852Z,101507.19
2022-12-18T09:30:49.001Z,101506.41
2022-12-18T09:33:40.686Z,101513.31
2022-12-18T09:36:33.199Z,101519.19
2022-12-18T09:39:23.958Z,101527.94
2022-12-18T09:42:20.213Z,101519.53
2022-12-18T09:45:11.453Z,101534.97
2022-12-18T09:48:00.101Z,101546.06
2022-12-18T09:50:50.621Z,101536.47
2022-12-18T09:53:40.334Z,101533.31
2022-12-18T09:56:30.949Z,101533.97
2022-12-18T09:59:24.943Z,101542.69
2022-12-18T10:02:18.222Z,101526.25
2022-12-18T10:05:09.014Z,101537.69
2022-12-18T10:08:04.874Z,101543.59
2022-12-18T10:10:55.170Z,101548.44
2022-12-18T10:13:48.623Z,101548.63
2022-12-18T10:16:44.563Z,101548.50
2022-12-18T10:19:40.812Z,101553.25
2022-12-18T10:22:43.301Z,101549.47
2022-12-18T10:25:37.168Z,101426.47
2022-12-18T10:28:25.684Z,101543.94
2022-12-18T10:31:18.037Z,101535.78
2022-12-18T10:34:07.726Z,101528.59
2022-12-18T10:36:56.161Z,101521.81
2022-12-18T10:39:44.652Z,101516.31
2022-12-18T10:42:34.925Z,101464.19
2022-12-18T10:45:23.395Z,101513.56
2022-12-18T10:48:20.309Z,101414.22
2022-12-18T10:51:12.393Z,101523.88
2022-12-18T10:54:04.253Z,101522.19
2022-12-18T10:57:18.754Z,101508.84
2022-12-18T11:00:29.096Z,101504.34
2022-12-18T11:03:33.889Z,101515.38
2022-12-18T11:06:25.395Z,101514.09
2022-12-18T11:09:23.086Z,101513.97
2022-12-18T11:12:18.068Z,101521.75
2022-12-18T11:15:07.432Z,101523.41
2022-12-18T11:17:57.357Z,101536.03
2022-12-18T11:20:58.172Z,101531.38
2022-12-18T11:23:49.535Z,101518.75
2022-12-18T11:26:38.080Z,101514.97
2022-12-18T11:29:35.848Z,101503.94
2022-12-18T11:32:35.208Z,101510.22
2022-12-18T11:35:32.997Z,101501.94
2022-12-18T11:38:25.098Z,101471.88
2022-12-18T11:41:18.684Z,101484.75
2022-12-18T11:44:09.238Z,101512.97
2022-12-18T11:47:03.257Z,101502.19
2022-12-18T11:49:52.448Z,101499.66
2022-12-18T11:52:42.911Z,101471.09
2022-12-18T11:55:39.655Z,101494.16
2022-12-18T11:58:43.845Z,101485.41
2022-12-18T12:01:44.425Z,101438.38
2022-12-18T12:05:04.817Z,101468.91
2022-12-18T12:08:01.614Z,101334.19
2022-12-18T12:10:58.407Z,101470.47
2022-12-18T12:13:59.226Z,101471.63
2022-12-18T12:16:52.375Z,101464.69
2022-12-18T12:19:48.157Z,101464.03
2022-12-18T12:22:43.057Z,101447.00
2022-12-18T12:25:40.524Z,101443.09
2022-12-18T12:28:45.406Z,101449.13
2022-12-18T12:31:49.527Z,101454.13
2022-12-18T12:34:44.294Z,101452.25
2022-12-18T12:37:38.919Z,101471.81
2022-12-18T12:43:48.061Z,101470.88
2022-12-18T12:46:41.596Z,101441.81
2022-12-18T12:49:40.297Z,101460.13
2022-12-18T12:52:33.427Z,101462.97
2022-12-18T12:55:24.248Z,101463.06
2022-12-18T12:58:19.101Z,101453.31
2022-12-18T13:01:21.516Z,101445.63
2022-12-18T13:04:21.550Z,101450.09
2022-12-18T13:07:16.825Z,101445.53
2022-12-18T13:10:26.934Z,101434.09
2022-12-18T13:13:17.352Z,101363.72
2022-12-18T13:16:13.516Z,101421.41
2022-12-18T13:19:02.325Z,101420.50
2022-12-18T13:21:55.334Z,101415.66
2022-12-18T13:24:43.930Z,101418.50
2022-12-18T13:27:57.168Z,101411.16
2022-12-18T13:30:57.581Z,101405.91
2022-12-18T13:37:00.511Z,101393.13
2022-12-18T13:39:49.149Z,101383.78
2022-12-18T13:42:58.617Z,101384.63
2022-12-18T13:45:48.768Z,101380.03
2022-12-18T13:48:39.428Z,101358.63
2022-12-18T13:51:31.071Z,101334.03
2022-12-18T13:54:22.215Z,101369.94
2022-12-18T13:57:28.662Z,101373.88
2022-12-18T14:00:28.747Z,101217.59
2022-12-18T14:03:22.728Z,101353.81
2022-12-18T14:06:13.857Z,101378.41
2022-12-18T14:09:09.496Z,101246.00
2022-12-18T14:12:19.317Z,101379.81
2022-12-18T14:15:09.409Z,101377.28
2022-12-18T14:18:00.962Z,101367.91
2022-12-18T14:20:53.025Z,101309.50
2022-12-18T14:23:44.162Z,101370.44
2022-12-18T14:26:34.532Z,101373.16
2022-12-18T14:29:27.089Z,101380.44
2022-12-18T14:32:18.722Z,101376.41
2022-12-18T14:35:15.355Z,101363.56
2022-12-18T14:38:22.725Z,101366.44
2022-12-18T14:41:14.392Z,101348.31
2022-12-18T14:44:10.089Z,101370.78
2022-12-18T14:46:58.609Z,101376.13
2022-12-18T14:49:47.013Z,101367.84
2022-12-18T14:52:35.521Z,101361.53
2022-12-18T14:55:24.251Z,101350.06
2022-12-18T14:58:16.131Z,101360.13
2022-12-18T15:01:06.383Z,101349.91
2022-12-18T15:03:55.659Z,101340.78
2022-12-18T15:06:44.528Z,101349.78
2022-12-18T15:09:34.320Z,101346.09
2022-12-18T15:12:28.620Z,101342.00
2022-12-18T15:15:48.314Z,101351.00
2022-12-18T15:18:43.550Z,101342.75
2022-12-18T15:21:32.617Z,101343.56
2022-12-18T15:24:29.725Z,101331.09
2022-12-18T15:27:34.382Z,101342.16
2022-12-18T15:30:25.002Z,101338.19
2022-12-18T15:33:25.647Z,101337.41
2022-12-18T15:36:19.529Z,101327.34
2022-12-18T15:39:15.165Z,101329.41
2022-12-18T15:42:21.364Z,101337.69
2022-12-18T15:45:13.578Z,101333.88
2022-12-18T15:48:02.111Z,101341.16
2022-12-18T15:50:51.721Z,101340.56
2022-12-18T15:53:41.946Z,101325.50
2022-12-18T15:56:48.051Z,101336.84
2022-12-18T15:59:36.545Z,101309.94
2022-12-18T16:02:25.379Z,101336.31
2022-12-18T16:05:17.885Z,101333.69
2022-12-18T16:08:06.455Z,101336.16
2022-12-18T16:10:56.998Z,101337.25
2022-12-18T16:13:45.611Z,101340.34
2022-12-18T16:16:34.641Z,101345.56
2022-12-18T16:19:23.458Z,101340.03
2022-12-18T16:22:21.391Z,101342.00
2022-12-18T16:25:13.910Z,101339.31
2022-12-18T16:28:03.889Z,101348.69
2022-12-18T16:30:52.530Z,101339.13
2022-12-18T16:33:41.461Z,101350.88
2022-12-18T16:36:30.172Z,101341.41
2022-12-18T16:39:18.752Z,101325.94
2022-12-18T16:42:10.770Z,101330.84
2022-12-18T16:45:00.663Z,101328.06
2022-12-18T16:47:50.260Z,101316.88
2022-12-18T16:50:38.920Z,101320.44
2022-12-18T16:53:27.597Z,101332.63
2022-12-18T16:56:16.248Z,101329.91
2022-12-18T16:59:05.583Z,101302.78
2022-12-18T17:01:55.972Z,101331.69
2022-12-18T17:04:45.013Z,101328.88
2022-12-18T17:07:33.807Z,101324.50
2022-12-18T17:10:24.192Z,101315.84
2022-12-18T17:13:12.727Z,101289.16
2022-12-18T17:16:04.887Z,101315.78
2022-12-18T17:18:54.967Z,101321.34
2022-12-18T17:21:43.569Z,101313.41
2022-12-18T17:24:35.219Z,101309.97
2022-12-18T17:27:24.035Z,101318.56
2022-12-18T17:30:13.413Z,101315.38
2022-12-18T17:33:01.950Z,101314.25
2022-12-18T17:35:52.047Z,101323.16
2022-12-18T17:38:41.004Z,101324.91
2022-12-18T17:41:30.545Z,101336.50
2022-12-18T17:44:19.583Z,101330.75
2022-12-18T17:47:09.994Z,101251.88
2022-12-18T17:49:58.498Z,101337.09
2022-12-18T17:52:48.434Z,101317.56
2022-12-18T17:55:36.935Z,101309.63
2022-12-18T17:58:25.464Z,101303.34
2022-12-18T18:01:15.461Z,101308.59
2022-12-18T18:04:05.266Z,101299.72
2022-12-18T18:06:53.793Z,101297.25
2022-12-18T18:09:43.697Z,101300.81
2022-12-18T18:12:50.499Z,101309.94
2022-12-18T18:15:40.192Z,101320.25
2022-12-18T18:18:28.654Z,101311.06
2022-12-18T18:21:17.336Z,101328.97
2022-12-18T18:24:06.854Z,101331.84
2022-12-18T18:26:56.730Z,101323.88
2022-12-18T18:29:45.596Z,101328.22
2022-12-18T18:32:37.900Z,101319.69
2022-12-18T18:35:52.992Z,101330.84
2022-12-18T18:38:35.327Z,101301.84
2022-12-18T18:41:24.664Z,101318.75
2022-12-18T18:44:14.505Z,101316.47
2022-12-18T18:47:05.602Z,101303.69
2022-12-18T18:49:58.131Z,101294.56
2022-12-18T18:52:46.751Z,101276.47
2022-12-18T18:55:35.316Z,101287.28
2022-12-18T18:58:24.017Z,101285.94
2022-12-18T19:01:16.006Z,101283.13
2022-12-18T19:04:05.196Z,101276.56
2022-12-18T19:06:53.748Z,101268.44
2022-12-18T19:09:43.817Z,101265.13
2022-12-18T19:12:49.795Z,101249.91
2022-12-18T19:15:38.310Z,101244.00
2022-12-18T19:18:28.572Z,101260.91
2022-12-18T19:21:17.068Z,101260.66
2022-12-18T19:24:06.706Z,101254.56
2022-12-18T19:26:57.942Z,101254.72
2022-12-18T19:29:46.711Z,101249.22
2022-12-18T19:32:35.575Z,101262.06
2022-12-18T19:35:25.549Z,101262.94
2022-12-18T19:38:14.373Z,101236.28
2022-12-18T19:41:05.474Z,101246.59
2022-12-18T19:43:54.315Z,101256.75
2022-12-18T19:46:43.181Z,101234.19
2022-12-18T19:49:32.665Z,101268.47
2022-12-18T19:52:22.601Z,101255.19
2022-12-18T19:55:11.141Z,101247.41
2022-12-18T19:57:59.679Z,101247.59
2022-12-18T20:00:48.259Z,101103.91
2022-12-18T20:03:36.918Z,101223.69
2022-12-18T20:06:27.027Z,101246.78
2022-12-18T20:09:17.263Z,101192.84
2022-12-18T20:12:06.737Z,101199.47
2022-12-18T20:14:55.563Z,101217.06
2022-12-18T20:17:44.096Z,101239.16
2022-12-18T20:20:32.599Z,101251.25
2022-12-18T20:23:21.952Z,101267.38
2022-12-18T20:26:12.082Z,101248.91
2022-12-18T20:29:00.820Z,101241.47
2022-12-18T20:31:49.342Z,101251.72
2022-12-18T20:34:38.027Z,101236.50
2022-12-18T20:37:27.070Z,101183.22
2022-12-18T20:40:15.762Z,101245.13
2022-12-18T20:43:07.037Z,101241.56
2022-12-18T20:46:01.711Z,101242.59
2022-12-18T20:48:50.281Z,101263.13
2022-12-18T20:51:39.011Z,101272.88
2022-12-18T20:54:28.543Z,101247.66
2022-12-18T20:57:17.105Z,101248.41
2022-12-18T21:00:08.933Z,101227.13
2022-12-18T21:02:58.808Z,101239.28
2022-12-18T21:05:47.381Z,101203.19
2022-12-18T21:08:35.964Z,101215.94
2022-12-18T21:11:46.666Z,101233.28
2022-12-18T21:14:35.267Z,101241.50
2022-12-18T21:17:26.708Z,101235.53
2022-12-18T21:20:17.404Z,101231.00
2022-12-18T21:23:16.356Z,101242.34
2022-12-18T21:26:16.990Z,101228.63
2022-12-18T21:29:07.132Z,101201.34
2022-12-18T21:31:56.190Z,101055.28
2022-12-18T21:34:48.255Z,101207.38
2022-12-18T21:37:37.069Z,101204.56
2022-12-18T21:40:26.059Z,101207.44
2022-12-18T21:43:32.014Z,101214.22
2022-12-18T21:46:20.531Z,101231.66
2022-12-18T21:49:10.575Z,101193.00
2022-12-18T21:52:01.359Z,101214.22
2022-12-18T21:54:50.042Z,101191.88
2022-12-18T21:57:39.063Z,101213.91
2022-12-18T22:00:27.541Z,101190.97
2022-12-18T22:03:18.303Z,101194.25
2022-12-18T22:06:09.820Z,101228.00
2022-12-18T22:08:59.810Z,101233.66
2022-12-18T22:11:48.912Z,101222.28
2022-12-18T22:14:37.425Z,101220.44
2022-12-18T22:17:25.895Z,101204.28
2022-12-18T22:20:15.950Z,101237.47
2022-12-18T22:23:06.178Z,101214.97
2022-12-18T22:25:56.391Z,101231.56
2022-12-18T22:29:02.154Z,101209.91
2022-12-18T22:31:51.055Z,101237.94
2022-12-18T22:34:39.680Z,101228.47
2022-12-18T22:37:28.218Z,101231.88
2022-12-18T22:40:23.953Z,101243.19
2022-12-18T22:43:15.162Z,101255.31
2022-12-18T22:46:03.772Z,101250.88
2022-12-18T22:48:52.392Z,101258.88
2022-12-18T22:51:41.073Z,101270.22
2022-12-18T22:54:29.612Z,101264.28
2022-12-18T22:57:18.051Z,101263.94
2022-12-18T23:00:09.820Z,101134.69
2022-12-18T23:03:00.989Z,101263.28
2022-12-18T23:05:49.842Z,101265.25
2022-12-18T23:08:39.958Z,101251.16
2022-12-18T23:11:28.597Z,101255.31
2022-12-18T23:14:17.295Z,101254.59
2022-12-18T23:17:07.067Z,101242.53
2022-12-18T23:19:55.480Z,101251.19
2022-12-18T23:22:43.910Z,101252.13
2022-12-18T23:25:32.444Z,101246.94
2022-12-18T23:28:20.842Z,101233.72
2022-12-18T23:31:13.211Z,101229.06
2022-12-18T23:34:06.813Z,101224.53
2022-12-18T23:36:56.237Z,101224.91
2022-12-18T23:39:44.815Z,101220.03
2022-12-18T23:42:33.282Z,101209.34
2022-12-18T23:45:21.739Z,101206.31
2022-12-18T23:48:10.195Z,101207.53
2022-12-18T23:51:06.161Z,101196.53
2022-12-18T23:53:55.170Z,101204.50
2022-12-18T23:56:43.685Z,101202.19
2022-12-18T23:59:32.220Z,101197.59
